sensor_id;sensor_type;location;lat;lon;timestamp;pressure;altitude;pressure_sealevel;temperature;humidity
40089;BME280;25793;55.706;13.186;2022-10-31T00:03:49;101152.50;;;14.04;93.91
40089;BME280;25793;55.706;13.186;2022-10-31T00:06:16;101156.28;;;14.00;93.72
40089;BME280;25793;55.706;13.186;2022-10-31T00:08:56;101158.97;;;13.98;93.46
40089;BME280;25793;55.706;13.186;2022-10-31T00:11:24;101159.41;;;14.05;93.78
40089;BME280;25793;55.706;13.186;2022-10-31T00:13:51;101159.13;;;14.10;93.16
40089;BME280;25793;55.706;13.186;2022-10-31T00:31:04;101151.50;;;13.92;94.17
40089;BME280;25793;55.706;13.186;2022-10-31T00:33:34;101162.53;;;13.97;93.91
40089;BME280;25793;55.706;13.186;2022-10-31T00:36:01;101169.75;;;13.94;93.32
40089;BME280;25793;55.706;13.186;2022-10-31T00:38:27;101165.09;;;13.84;94.01
40089;BME280;25793;55.706;13.186;2022-10-31T00:40:54;101179.19;;;13.82;94.41
40089;BME280;25793;55.706;13.186;2022-10-31T00:43:21;101175.84;;;13.80;94.23
40089;BME280;25793;55.706;13.186;2022-10-31T00:45:47;101175.00;;;13.79;93.85
40089;BME280;25793;55.706;13.186;2022-10-31T00:51:09;101176.97;;;13.76;92.88
40089;BME280;25793;55.706;13.186;2022-10-31T00:53:36;101171.84;;;13.74;92.88
40089;BME280;25793;55.706;13.186;2022-10-31T00:56:03;101172.94;;;13.84;93.15
40089;BME280;25793;55.706;13.186;2022-10-31T00:58:30;101161.97;;;13.92;92.53
40089;BME280;25793;55.706;13.186;2022-10-31T01:00:57;101170.72;;;14.06;92.55
40089;BME280;25793;55.706;13.186;2022-10-31T01:03:26;101157.88;;;14.15;92.16
40089;BME280;25793;55.706;13.186;2022-10-31T01:06:02;101168.44;;;14.14;91.40
40089;BME280;25793;55.706;13.186;2022-10-31T01:08:31;101164.25;;;14.24;91.03
40089;BME280;25793;55.706;13.186;2022-10-31T01:11:11;101167.31;;;14.18;90.49
40089;BME280;25793;55.706;13.186;2022-10-31T01:13:40;101161.34;;;14.16;90.50
40089;BME280;25793;55.706;13.186;2022-10-31T01:16:09;101159.53;;;14.16;89.90
40089;BME280;25793;55.706;13.186;2022-10-31T01:18:36;101155.16;;;14.17;90.31
40089;BME280;25793;55.706;13.186;2022-10-31T01:21:07;101153.16;;;14.21;90.20
40089;BME280;25793;55.706;13.186;2022-10-31T01:23:35;101161.97;;;14.33;90.12
40089;BME280;25793;55.706;13.186;2022-10-31T01:26:10;101168.47;;;14.27;89.37
40089;BME280;25793;55.706;13.186;2022-10-31T01:28:46;101158.00;;;14.27;89.91
40089;BME280;25793;55.706;13.186;2022-10-31T01:31:14;101146.63;;;14.41;89.80
40089;BME280;25793;55.706;13.186;2022-10-31T01:33:41;101166.28;;;14.34;88.50
40089;BME280;25793;55.706;13.186;2022-10-31T01:36:16;101176.19;;;14.28;89.11
40089;BME280;25793;55.706;13.186;2022-10-31T01:38:43;101168.56;;;14.25;88.78
40089;BME280;25793;55.706;13.186;2022-10-31T01:41:11;101176.53;;;14.24;89.09
40089;BME280;25793;55.706;13.186;2022-10-31T01:43:44;101159.47;;;14.31;89.32
40089;BME280;25793;55.706;13.186;2022-10-31T01:46:11;101157.22;;;14.52;88.99
40089;BME280;25793;55.706;13.186;2022-10-31T01:48:40;101162.94;;;14.57;88.13
40089;BME280;25793;55.706;13.186;2022-10-31T01:51:10;101164.31;;;14.50;88.20
40089;BME280;25793;55.706;13.186;2022-10-31T01:53:38;101166.38;;;14.32;88.07
40089;BME280;25793;55.706;13.186;2022-10-31T01:56:06;101169.53;;;14.37;88.49
40089;BME280;25793;55.706;13.186;2022-10-31T01:58:36;101165.94;;;14.25;88.25
40089;BME280;25793;55.706;13.186;2022-10-31T02:01:03;101156.31;;;14.13;89.14
40089;BME280;25793;55.706;13.186;2022-10-31T02:03:34;101163.97;;;14.29;88.77
40089;BME280;25793;55.706;13.186;2022-10-31T02:06:03;101165.16;;;14.51;87.99
40089;BME280;25793;55.706;13.186;2022-10-31T02:08:33;101166.69;;;14.40;87.82
40089;BME280;25793;55.706;13.186;2022-10-31T02:11:01;101171.69;;;14.18;87.87
40089;BME280;25793;55.706;13.186;2022-10-31T02:13:28;101178.22;;;13.97;88.66
40089;BME280;25793;55.706;13.186;2022-10-31T02:15:57;101190.09;;;13.89;89.83
40089;BME280;25793;55.706;13.186;2022-10-31T02:18:27;101200.66;;;13.87;90.27
40089;BME280;25793;55.706;13.186;2022-10-31T02:20:58;101207.56;;;13.88;90.23
40089;BME280;25793;55.706;13.186;2022-10-31T02:23:59;101204.13;;;13.88;90.60
40089;BME280;25793;55.706;13.186;2022-10-31T02:26:45;101210.28;;;13.86;90.20
40089;BME280;25793;55.706;13.186;2022-10-31T02:35:11;101211.91;;;13.75;90.82
40089;BME280;25793;55.706;13.186;2022-10-31T02:40:34;101224.72;;;13.92;90.46
40089;BME280;25793;55.706;13.186;2022-10-31T02:49:21;101206.97;;;13.97;90.09
40089;BME280;25793;55.706;13.186;2022-10-31T02:51:50;101202.63;;;14.11;89.44
40089;BME280;25793;55.706;13.186;2022-10-31T02:54:18;101195.22;;;14.18;89.02
40089;BME280;25793;55.706;13.186;2022-10-31T02:56:52;101189.09;;;14.31;88.47
40089;BME280;25793;55.706;13.186;2022-10-31T02:59:20;101186.19;;;14.49;87.67
40089;BME280;25793;55.706;13.186;2022-10-31T03:02:04;101180.13;;;14.61;87.28
40089;BME280;25793;55.706;13.186;2022-10-31T03:07:30;101195.06;;;14.87;85.77
40089;BME280;25793;55.706;13.186;2022-10-31T03:15:34;101189.28;;;15.08;84.19
40089;BME280;25793;55.706;13.186;2022-10-31T03:18:08;101195.88;;;15.13;83.74
40089;BME280;25793;55.706;13.186;2022-10-31T03:20:46;101201.34;;;15.10;83.55
40089;BME280;25793;55.706;13.186;2022-10-31T03:23:16;101204.91;;;14.96;83.58
40089;BME280;25793;55.706;13.186;2022-10-31T03:25:49;101213.28;;;14.88;83.70
40089;BME280;25793;55.706;13.186;2022-10-31T03:28:18;101214.66;;;14.94;83.68
40089;BME280;25793;55.706;13.186;2022-10-31T03:30:48;101200.50;;;14.97;83.67
40089;BME280;25793;55.706;13.186;2022-10-31T03:33:19;101206.16;;;15.03;83.33
40089;BME280;25793;55.706;13.186;2022-10-31T03:35:51;101194.09;;;15.01;83.13
40089;BME280;25793;55.706;13.186;2022-10-31T03:38:19;101196.31;;;15.07;82.99
40089;BME280;25793;55.706;13.186;2022-10-31T03:40:47;101183.22;;;15.07;83.42
40089;BME280;25793;55.706;13.186;2022-10-31T03:43:26;101193.38;;;15.12;82.61
40089;BME280;25793;55.706;13.186;2022-10-31T03:45:55;101200.06;;;15.16;82.32
40089;BME280;25793;55.706;13.186;2022-10-31T03:48:23;101185.81;;;15.20;81.88
40089;BME280;25793;55.706;13.186;2022-10-31T03:53:41;101181.84;;;15.14;82.31
40089;BME280;25793;55.706;13.186;2022-10-31T03:56:25;101189.91;;;15.11;81.86
40089;BME280;25793;55.706;13.186;2022-10-31T03:59:29;101176.81;;;15.11;81.73
40089;BME280;25793;55.706;13.186;2022-10-31T04:02:06;101185.81;;;15.07;82.04
40089;BME280;25793;55.706;13.186;2022-10-31T04:04:35;101186.47;;;15.11;81.79
40089;BME280;25793;55.706;13.186;2022-10-31T04:07:05;101195.75;;;15.15;81.87
40089;BME280;25793;55.706;13.186;2022-10-31T04:09:36;101191.91;;;15.20;81.53
40089;BME280;25793;55.706;13.186;2022-10-31T04:12:06;101191.03;;;15.20;81.47
40089;BME280;25793;55.706;13.186;2022-10-31T04:14:58;101190.75;;;15.12;81.58
40089;BME280;25793;55.706;13.186;2022-10-31T04:17:27;101192.41;;;15.00;81.83
40089;BME280;25793;55.706;13.186;2022-10-31T04:19:59;101186.16;;;14.89;81.96
40089;BME280;25793;55.706;13.186;2022-10-31T04:22:27;101184.78;;;14.84;82.49
40089;BME280;25793;55.706;13.186;2022-10-31T04:24:54;101192.84;;;14.81;82.83
40089;BME280;25793;55.706;13.186;2022-10-31T04:27:20;101186.56;;;14.83;82.45
40089;BME280;25793;55.706;13.186;2022-10-31T04:29:47;101186.03;;;14.91;82.31
40089;BME280;25793;55.706;13.186;2022-10-31T04:32:17;101195.38;;;14.95;82.15
40089;BME280;25793;55.706;13.186;2022-10-31T04:34:44;101193.50;;;14.97;81.73
40089;BME280;25793;55.706;13.186;2022-10-31T04:37:10;101198.53;;;15.00;82.01
40089;BME280;25793;55.706;13.186;2022-10-31T04:39:38;101200.72;;;15.07;81.77
40089;BME280;25793;55.706;13.186;2022-10-31T04:42:23;101207.91;;;15.16;81.58
40089;BME280;25793;55.706;13.186;2022-10-31T04:44:51;101199.22;;;15.15;81.03
40089;BME280;25793;55.706;13.186;2022-10-31T04:47:18;101214.09;;;15.15;81.13
40089;BME280;25793;55.706;13.186;2022-10-31T04:49:44;101211.28;;;15.18;81.12
40089;BME280;25793;55.706;13.186;2022-10-31T04:52:12;101218.63;;;15.13;80.94
40089;BME280;25793;55.706;13.186;2022-10-31T04:54:39;101223.84;;;14.87;81.10
40089;BME280;25793;55.706;13.186;2022-10-31T04:57:46;101216.41;;;14.81;82.28
40089;BME280;25793;55.706;13.186;2022-10-31T05:00:17;101218.94;;;14.95;82.18
40089;BME280;25793;55.706;13.186;2022-10-31T05:02:48;101218.72;;;14.98;81.44
40089;BME280;25793;55.706;13.186;2022-10-31T05:05:17;101219.28;;;14.90;81.76
40089;BME280;25793;55.706;13.186;2022-10-31T05:07:46;101218.31;;;14.92;81.92
40089;BME280;25793;55.706;13.186;2022-10-31T05:10:15;101225.00;;;14.96;81.80
40089;BME280;25793;55.706;13.186;2022-10-31T05:12:49;101231.31;;;14.93;81.49
40089;BME280;25793;55.706;13.186;2022-10-31T05:15:34;101232.03;;;14.82;81.67
40089;BME280;25793;55.706;13.186;2022-10-31T05:18:36;101241.78;;;14.80;82.18
40089;BME280;25793;55.706;13.186;2022-10-31T05:21:25;101245.88;;;14.84;81.99
40089;BME280;25793;55.706;13.186;2022-10-31T05:23:57;101234.44;;;14.98;81.87
40089;BME280;25793;55.706;13.186;2022-10-31T05:26:24;101239.81;;;15.10;81.87
40089;BME280;25793;55.706;13.186;2022-10-31T05:28:52;101243.88;;;15.14;81.24
40089;BME280;25793;55.706;13.186;2022-10-31T05:31:18;101237.28;;;15.08;81.20
40089;BME280;25793;55.706;13.186;2022-10-31T05:33:47;101243.13;;;14.99;81.09
40089;BME280;25793;55.706;13.186;2022-10-31T05:36:32;101240.72;;;14.96;81.62
40089;BME280;25793;55.706;13.186;2022-10-31T05:39:09;101238.00;;;14.97;81.65
40089;BME280;25793;55.706;13.186;2022-10-31T05:41:41;101251.63;;;14.89;81.74
40089;BME280;25793;55.706;13.186;2022-10-31T05:44:13;101255.59;;;14.82;81.58
40089;BME280;25793;55.706;13.186;2022-10-31T05:46:56;101256.91;;;14.62;82.71
40089;BME280;25793;55.706;13.186;2022-10-31T05:49:58;101258.28;;;14.40;83.39
40089;BME280;25793;55.706;13.186;2022-10-31T05:52:31;101265.56;;;13.95;85.62
40089;BME280;25793;55.706;13.186;2022-10-31T05:55:06;101260.31;;;13.95;85.93
40089;BME280;25793;55.706;13.186;2022-10-31T05:57:33;101270.25;;;14.17;85.78
40089;BME280;25793;55.706;13.186;2022-10-31T06:00:00;101276.72;;;14.39;85.20
40089;BME280;25793;55.706;13.186;2022-10-31T06:02:33;101274.34;;;14.21;85.05
40089;BME280;25793;55.706;13.186;2022-10-31T06:05:24;101275.44;;;14.31;84.91
40089;BME280;25793;55.706;13.186;2022-10-31T06:07:51;101268.00;;;14.38;84.82
40089;BME280;25793;55.706;13.186;2022-10-31T06:10:18;101267.56;;;14.59;84.72
40089;BME280;25793;55.706;13.186;2022-10-31T06:12:50;101273.59;;;14.74;83.81
40089;BME280;25793;55.706;13.186;2022-10-31T06:15:28;101276.00;;;14.77;83.29
40089;BME280;25793;55.706;13.186;2022-10-31T06:18:05;101276.88;;;14.90;82.75
40089;BME280;25793;55.706;13.186;2022-10-31T06:20:35;101279.91;;;14.97;82.58
40089;BME280;25793;55.706;13.186;2022-10-31T06:23:03;101279.81;;;14.99;81.91
40089;BME280;25793;55.706;13.186;2022-10-31T06:25:32;101281.69;;;14.97;82.21
40089;BME280;25793;55.706;13.186;2022-10-31T06:27:59;101273.81;;;14.97;81.83
40089;BME280;25793;55.706;13.186;2022-10-31T06:30:35;101286.09;;;14.96;81.84
40089;BME280;25793;55.706;13.186;2022-10-31T06:33:03;101290.66;;;14.80;81.98
40089;BME280;25793;55.706;13.186;2022-10-31T06:35:32;101286.50;;;14.63;82.39
40089;BME280;25793;55.706;13.186;2022-10-31T06:37:59;101299.59;;;14.63;82.87
40089;BME280;25793;55.706;13.186;2022-10-31T06:40:34;101292.97;;;14.71;82.71
40089;BME280;25793;55.706;13.186;2022-10-31T06:43:21;101293.16;;;14.68;82.85
40089;BME280;25793;55.706;13.186;2022-10-31T06:45:52;101294.03;;;14.82;82.85
40089;BME280;25793;55.706;13.186;2022-10-31T06:48:22;101294.91;;;14.95;82.85
40089;BME280;25793;55.706;13.186;2022-10-31T06:51:14;101299.72;;;15.01;81.58
40089;BME280;25793;55.706;13.186;2022-10-31T06:53:41;101300.25;;;15.07;81.62
40089;BME280;25793;55.706;13.186;2022-10-31T06:56:10;101300.69;;;15.13;81.37
40089;BME280;25793;55.706;13.186;2022-10-31T06:58:42;101302.34;;;15.14;81.60
40089;BME280;25793;55.706;13.186;2022-10-31T07:01:10;101298.47;;;15.20;81.46
40089;BME280;25793;55.706;13.186;2022-10-31T07:03:38;101302.56;;;15.24;81.18
40089;BME280;25793;55.706;13.186;2022-10-31T07:06:04;101294.69;;;15.24;80.86
40089;BME280;25793;55.706;13.186;2022-10-31T07:08:32;101300.47;;;15.16;81.40
40089;BME280;25793;55.706;13.186;2022-10-31T07:10:58;101302.97;;;15.18;81.36
40089;BME280;25793;55.706;13.186;2022-10-31T07:13:27;101304.44;;;15.22;81.42
40089;BME280;25793;55.706;13.186;2022-10-31T07:16:05;101303.63;;;15.22;81.19
40089;BME280;25793;55.706;13.186;2022-10-31T07:18:34;101295.84;;;15.20;81.09
40089;BME280;25793;55.706;13.186;2022-10-31T07:21:01;101303.50;;;15.23;81.31
40089;BME280;25793;55.706;13.186;2022-10-31T07:23:28;101307.06;;;15.22;81.14
40089;BME280;25793;55.706;13.186;2022-10-31T07:26:15;101315.56;;;15.26;81.26
40089;BME280;25793;55.706;13.186;2022-10-31T07:28:48;101322.91;;;15.33;80.85
40089;BME280;25793;55.706;13.186;2022-10-31T07:31:18;101325.00;;;15.28;80.63
40089;BME280;25793;55.706;13.186;2022-10-31T07:33:45;101321.03;;;15.35;80.71
40089;BME280;25793;55.706;13.186;2022-10-31T07:36:24;101328.03;;;15.35;80.24
40089;BME280;25793;55.706;13.186;2022-10-31T07:38:53;101331.19;;;15.40;80.06
40089;BME280;25793;55.706;13.186;2022-10-31T07:41:21;101325.31;;;15.49;80.15
40089;BME280;25793;55.706;13.186;2022-10-31T07:43:48;101334.75;;;15.52;79.85
40089;BME280;25793;55.706;13.186;2022-10-31T07:46:14;101327.53;;;15.56;79.21
40089;BME280;25793;55.706;13.186;2022-10-31T07:48:56;101322.88;;;15.59;79.16
40089;BME280;25793;55.706;13.186;2022-10-31T07:51:52;101323.75;;;15.60;79.39
40089;BME280;25793;55.706;13.186;2022-10-31T07:54:44;101331.19;;;15.66;79.29
40089;BME280;25793;55.706;13.186;2022-10-31T07:57:11;101319.03;;;15.65;79.19
40089;BME280;25793;55.706;13.186;2022-10-31T07:59:38;101327.28;;;15.72;79.06
40089;BME280;25793;55.706;13.186;2022-10-31T08:02:07;101332.53;;;15.72;78.67
40089;BME280;25793;55.706;13.186;2022-10-31T08:04:53;101333.69;;;15.68;78.77
40089;BME280;25793;55.706;13.186;2022-10-31T08:07:28;101336.00;;;15.59;79.47
40089;BME280;25793;55.706;13.186;2022-10-31T08:10:02;101335.38;;;15.69;79.51
40089;BME280;25793;55.706;13.186;2022-10-31T08:12:30;101344.72;;;15.73;78.97
40089;BME280;25793;55.706;13.186;2022-10-31T08:14:57;101347.13;;;15.76;79.02
40089;BME280;25793;55.706;13.186;2022-10-31T08:17:24;101354.03;;;15.77;79.50
40089;BME280;25793;55.706;13.186;2022-10-31T08:19:54;101340.22;;;15.62;79.70
40089;BME280;25793;55.706;13.186;2022-10-31T08:22:27;101348.09;;;15.49;80.41
40089;BME280;25793;55.706;13.186;2022-10-31T08:24:53;101346.50;;;15.59;80.43
40089;BME280;25793;55.706;13.186;2022-10-31T08:27:20;101341.44;;;15.56;80.31
40089;BME280;25793;55.706;13.186;2022-10-31T08:29:47;101341.03;;;15.62;80.67
40089;BME280;25793;55.706;13.186;2022-10-31T08:32:14;101342.63;;;15.65;80.67
40089;BME280;25793;55.706;13.186;2022-10-31T08:34:59;101339.47;;;15.73;80.63
40089;BME280;25793;55.706;13.186;2022-10-31T08:37:44;101345.97;;;15.80;80.54
40089;BME280;25793;55.706;13.186;2022-10-31T08:40:11;101349.41;;;15.80;80.41
40089;BME280;25793;55.706;13.186;2022-10-31T08:42:39;101344.50;;;15.76;80.70
40089;BME280;25793;55.706;13.186;2022-10-31T08:45:06;101342.28;;;15.96;80.73
40089;BME280;25793;55.706;13.186;2022-10-31T08:47:34;101343.69;;;16.13;80.18
40089;BME280;25793;55.706;13.186;2022-10-31T08:50:01;101346.75;;;16.19;80.12
40089;BME280;25793;55.706;13.186;2022-10-31T08:52:28;101342.63;;;16.28;79.59
40089;BME280;25793;55.706;13.186;2022-10-31T08:55:15;101350.66;;;16.01;79.87
40089;BME280;25793;55.706;13.186;2022-10-31T08:58:03;101348.91;;;16.01;81.02
40089;BME280;25793;55.706;13.186;2022-10-31T09:00:39;101354.97;;;16.02;81.05
40089;BME280;25793;55.706;13.186;2022-10-31T09:03:32;101364.44;;;16.04;81.36
40089;BME280;25793;55.706;13.186;2022-10-31T09:06:01;101368.22;;;16.00;81.52
40089;BME280;25793;55.706;13.186;2022-10-31T09:08:30;101368.81;;;16.04;81.83
40089;BME280;25793;55.706;13.186;2022-10-31T09:10:57;101367.06;;;16.04;81.43
40089;BME280;25793;55.706;13.186;2022-10-31T09:13:47;101372.41;;;15.77;82.30
40089;BME280;25793;55.706;13.186;2022-10-31T09:16:14;101389.06;;;14.97;85.88
40089;BME280;25793;55.706;13.186;2022-10-31T09:18:40;101390.91;;;15.09;86.72
40089;BME280;25793;55.706;13.186;2022-10-31T09:21:07;101397.31;;;14.63;88.59
40089;BME280;25793;55.706;13.186;2022-10-31T09:23:34;101390.91;;;14.54;89.95
40089;BME280;25793;55.706;13.186;2022-10-31T09:26:01;101393.28;;;14.57;90.57
40089;BME280;25793;55.706;13.186;2022-10-31T09:28:50;101398.19;;;14.49;91.38
40089;BME280;25793;55.706;13.186;2022-10-31T09:31:17;101401.00;;;14.46;91.79
40089;BME280;25793;55.706;13.186;2022-10-31T09:33:46;101409.63;;;14.34;92.63
40089;BME280;25793;55.706;13.186;2022-10-31T09:36:37;101407.19;;;14.30;93.71
40089;BME280;25793;55.706;13.186;2022-10-31T09:39:11;101401.03;;;13.88;96.09
40089;BME280;25793;55.706;13.186;2022-10-31T09:42:07;101396.84;;;13.85;97.20
40089;BME280;25793;55.706;13.186;2022-10-31T09:48:26;101406.75;;;14.09;96.98
40089;BME280;25793;55.706;13.186;2022-10-31T09:51:17;101405.63;;;13.84;98.18
40089;BME280;25793;55.706;13.186;2022-10-31T09:54:47;101412.16;;;14.06;97.64
40089;BME280;25793;55.706;13.186;2022-10-31T09:57:23;101411.41;;;14.33;96.13
40089;BME280;25793;55.706;13.186;2022-10-31T09:59:52;101412.91;;;13.79;98.47
40089;BME280;25793;55.706;13.186;2022-10-31T10:02:39;101415.34;;;13.82;98.83
40089;BME280;25793;55.706;13.186;2022-10-31T10:05:22;101418.22;;;13.92;98.43
40089;BME280;25793;55.706;13.186;2022-10-31T10:08:18;101418.06;;;14.10;98.13
40089;BME280;25793;55.706;13.186;2022-10-31T10:11:38;101416.81;;;13.72;98.82
40089;BME280;25793;55.706;13.186;2022-10-31T10:14:21;101422.91;;;13.73;99.12
40089;BME280;25793;55.706;13.186;2022-10-31T10:32:57;101419.44;;;14.30;97.08
40089;BME280;25793;55.706;13.186;2022-10-31T10:35:33;101425.34;;;14.05;97.52
40089;BME280;25793;55.706;13.186;2022-10-31T10:40:39;101423.75;;;14.16;97.19
40089;BME280;25793;55.706;13.186;2022-10-31T10:43:33;101414.13;;;14.03;97.85
40089;BME280;25793;55.706;13.186;2022-10-31T10:52:06;101423.50;;;14.49;95.29
40089;BME280;25793;55.706;13.186;2022-10-31T10:55:18;101417.50;;;14.61;95.31
40089;BME280;25793;55.706;13.186;2022-10-31T10:58:03;101411.16;;;14.65;95.08
40089;BME280;25793;55.706;13.186;2022-10-31T11:00:34;101412.47;;;14.58;94.49
40089;BME280;25793;55.706;13.186;2022-10-31T11:03:02;101415.38;;;14.53;94.66
40089;BME280;25793;55.706;13.186;2022-10-31T11:05:48;101414.78;;;14.63;94.73
40089;BME280;25793;55.706;13.186;2022-10-31T11:08:35;101420.41;;;14.71;94.25
40089;BME280;25793;55.706;13.186;2022-10-31T11:13:29;101421.63;;;14.65;94.44
40089;BME280;25793;55.706;13.186;2022-10-31T11:16:00;101420.44;;;14.42;94.88
40089;BME280;25793;55.706;13.186;2022-10-31T11:18:31;101418.25;;;14.63;94.64
40089;BME280;25793;55.706;13.186;2022-10-31T11:21:00;101424.38;;;14.49;94.69
40089;BME280;25793;55.706;13.186;2022-10-31T11:23:28;101421.16;;;14.58;94.68
40089;BME280;25793;55.706;13.186;2022-10-31T11:28:22;101419.56;;;14.98;93.47
40089;BME280;25793;55.706;13.186;2022-10-31T11:30:52;101420.75;;;15.07;92.67
40089;BME280;25793;55.706;13.186;2022-10-31T11:35:55;101417.78;;;15.26;90.95
40089;BME280;25793;55.706;13.186;2022-10-31T11:38:34;101418.38;;;15.16;90.78
40089;BME280;25793;55.706;13.186;2022-10-31T11:43:37;101420.19;;;15.29;90.79
40089;BME280;25793;55.706;13.186;2022-10-31T11:46:14;101421.44;;;15.36;90.54
40089;BME280;25793;55.706;13.186;2022-10-31T11:48:50;101422.09;;;15.40;90.00
40089;BME280;25793;55.706;13.186;2022-10-31T11:51:27;101417.94;;;15.63;89.79
40089;BME280;25793;55.706;13.186;2022-10-31T11:53:59;101419.41;;;15.80;88.77
40089;BME280;25793;55.706;13.186;2022-10-31T11:56:41;101415.19;;;15.52;88.54
40089;BME280;25793;55.706;13.186;2022-10-31T11:59:18;101426.66;;;15.23;89.73
40089;BME280;25793;55.706;13.186;2022-10-31T12:01:51;101424.22;;;15.07;90.45
40089;BME280;25793;55.706;13.186;2022-10-31T12:04:34;101421.50;;;15.09;90.97
40089;BME280;25793;55.706;13.186;2022-10-31T12:07:01;101413.66;;;15.22;90.49
40089;BME280;25793;55.706;13.186;2022-10-31T12:09:29;101414.63;;;15.33;90.21
40089;BME280;25793;55.706;13.186;2022-10-31T12:15:01;101402.50;;;15.58;89.44
40089;BME280;25793;55.706;13.186;2022-10-31T12:17:39;101405.09;;;15.71;88.79
40089;BME280;25793;55.706;13.186;2022-10-31T12:20:23;101409.19;;;15.75;88.28
40089;BME280;25793;55.706;13.186;2022-10-31T12:23:15;101402.72;;;15.81;87.65
40089;BME280;25793;55.706;13.186;2022-10-31T12:25:50;101402.81;;;15.92;87.16
40089;BME280;25793;55.706;13.186;2022-10-31T12:33:47;101396.94;;;15.63;87.70
40089;BME280;25793;55.706;13.186;2022-10-31T12:39:06;101401.06;;;15.14;89.11
40089;BME280;25793;55.706;13.186;2022-10-31T12:45:05;101395.66;;;15.30;89.68
40089;BME280;25793;55.706;13.186;2022-10-31T12:53:08;101398.19;;;15.44;87.78
40089;BME280;25793;55.706;13.186;2022-10-31T12:58:29;101385.53;;;15.51;88.52
40089;BME280;25793;55.706;13.186;2022-10-31T13:01:09;101386.53;;;15.74;87.54
40089;BME280;25793;55.706;13.186;2022-10-31T13:03:48;101377.53;;;15.91;86.70
40089;BME280;25793;55.706;13.186;2022-10-31T13:06:33;101385.66;;;15.88;85.99
40089;BME280;25793;55.706;13.186;2022-10-31T13:09:17;101389.72;;;15.92;85.07
40089;BME280;25793;55.706;13.186;2022-10-31T13:11:48;101392.84;;;15.98;85.06
40089;BME280;25793;55.706;13.186;2022-10-31T13:14:32;101390.03;;;15.88;84.50
40089;BME280;25793;55.706;13.186;2022-10-31T13:17:01;101382.88;;;15.77;85.23
40089;BME280;25793;55.706;13.186;2022-10-31T13:19:33;101388.16;;;15.90;84.87
40089;BME280;25793;55.706;13.186;2022-10-31T13:22:09;101381.63;;;15.96;85.28
40089;BME280;25793;55.706;13.186;2022-10-31T13:27:30;101382.50;;;16.33;83.73
40089;BME280;25793;55.706;13.186;2022-10-31T13:33:19;101391.53;;;16.29;83.11
40089;BME280;25793;55.706;13.186;2022-10-31T13:41:06;101388.97;;;16.03;83.61
40089;BME280;25793;55.706;13.186;2022-10-31T13:46:46;101385.59;;;16.14;83.37
40089;BME280;25793;55.706;13.186;2022-10-31T13:49:39;101383.28;;;16.22;83.02
40089;BME280;25793;55.706;13.186;2022-10-31T13:59:49;101383.72;;;16.16;83.69
40089;BME280;25793;55.706;13.186;2022-10-31T14:02:23;101379.41;;;16.15;83.53
40089;BME280;25793;55.706;13.186;2022-10-31T14:04:55;101387.16;;;16.17;82.83
40089;BME280;25793;55.706;13.186;2022-10-31T14:07:24;101386.22;;;16.18;82.32
40089;BME280;25793;55.706;13.186;2022-10-31T14:10:04;101388.56;;;15.97;83.22
40089;BME280;25793;55.706;13.186;2022-10-31T14:12:38;101387.53;;;15.86;83.49
40089;BME280;25793;55.706;13.186;2022-10-31T14:15:20;101391.28;;;15.82;83.88
40089;BME280;25793;55.706;13.186;2022-10-31T14:17:50;101399.25;;;15.80;84.32
40089;BME280;25793;55.706;13.186;2022-10-31T14:22:44;101390.31;;;15.57;85.44
40089;BME280;25793;55.706;13.186;2022-10-31T14:25:31;101384.78;;;15.49;85.20
40089;BME280;25793;55.706;13.186;2022-10-31T14:28:00;101392.94;;;15.57;85.36
40089;BME280;25793;55.706;13.186;2022-10-31T14:30:29;101395.06;;;15.65;85.21
40089;BME280;25793;55.706;13.186;2022-10-31T14:33:01;101382.78;;;15.65;84.53
40089;BME280;25793;55.706;13.186;2022-10-31T14:35:52;101386.66;;;15.60;84.62
40089;BME280;25793;55.706;13.186;2022-10-31T14:41:17;101375.00;;;15.38;85.62
40089;BME280;25793;55.706;13.186;2022-10-31T14:49:35;101385.31;;;15.67;85.10
40089;BME280;25793;55.706;13.186;2022-10-31T14:52:07;101381.94;;;15.52;85.15
40089;BME280;25793;55.706;13.186;2022-10-31T14:54:39;101387.41;;;15.62;85.43
40089;BME280;25793;55.706;13.186;2022-10-31T14:57:25;101386.88;;;15.70;85.09
40089;BME280;25793;55.706;13.186;2022-10-31T14:59:58;101382.66;;;15.54;85.24
40089;BME280;25793;55.706;13.186;2022-10-31T15:02:43;101383.09;;;15.48;85.75
40089;BME280;25793;55.706;13.186;2022-10-31T15:05:13;101381.31;;;15.48;86.52
40089;BME280;25793;55.706;13.186;2022-10-31T15:07:57;101376.81;;;15.50;86.09
40089;BME280;25793;55.706;13.186;2022-10-31T15:10:28;101382.56;;;15.56;86.21
40089;BME280;25793;55.706;13.186;2022-10-31T15:13:08;101372.28;;;15.53;85.89
40089;BME280;25793;55.706;13.186;2022-10-31T15:15:36;101375.84;;;15.64;85.88
40089;BME280;25793;55.706;13.186;2022-10-31T15:18:04;101373.03;;;15.68;85.13
40089;BME280;25793;55.706;13.186;2022-10-31T15:20:37;101373.56;;;15.73;84.71
40089;BME280;25793;55.706;13.186;2022-10-31T15:23:10;101382.91;;;15.64;84.85
40089;BME280;25793;55.706;13.186;2022-10-31T15:25:38;101374.59;;;15.57;85.08
40089;BME280;25793;55.706;13.186;2022-10-31T15:28:20;101367.38;;;15.48;85.48
40089;BME280;25793;55.706;13.186;2022-10-31T15:30:55;101371.22;;;15.42;85.87
40089;BME280;25793;55.706;13.186;2022-10-31T15:33:28;101375.53;;;15.43;85.78
40089;BME280;25793;55.706;13.186;2022-10-31T15:36:03;101373.84;;;15.42;86.07